Time;durP1;ratioP1;P1;durP2;ratioP2;P2;SDS_P1;SDS_P2;PMS_P1;PMS_P2;Temp;Humidity;BMP_temperature;BMP_pressure;BME280_temperature;BME280_humidity;BME280_pressure;Samples;Min_cycle;Max_cycle;Signal;HPM_P1;HPM_P2
2021/05/23 00:04:55;;;;;;;26.45;19.40;;;10.80;99.90;;;;;;10455952;28;20041;-60
2021/05/23 00:09:58;;;;;;;30.13;19.85;;;10.60;99.90;;;;;;10455866;28;20045;-60
2021/05/23 00:15:00;;;;;;;27.50;19.45;;;10.70;99.90;;;;;;10454859;28;20124;-60
2021/05/23 00:20:04;;;;;;;25.80;17.92;;;10.70;99.90;;;;;;10455848;28;20041;-61
2021/05/23 00:25:07;;;;;;;26.75;19.98;;;10.60;99.90;;;;;;10455768;28;20048;-60
2021/05/23 00:30:11;;;;;;;24.25;17.83;;;10.60;99.90;;;;;;10455754;28;20132;-60
2021/05/23 00:35:14;;;;;;;44.97;23.40;;;10.60;99.90;;;;;;10454272;28;20041;-60
2021/05/23 00:40:16;;;;;;;25.75;19.58;;;10.70;99.90;;;;;;10455240;28;20394;-61
2021/05/23 00:45:19;;;;;;;29.63;20.13;;;10.70;99.90;;;;;;10455574;28;20051;-61
2021/05/23 00:50:25;;;;;;;27.88;21.42;;;10.70;99.90;;;;;;10458777;28;20051;-61
2021/05/23 00:55:28;;;;;;;33.20;21.25;;;10.60;99.90;;;;;;10462464;28;20049;-60
2021/05/23 01:00:33;;;;;;;23.23;20.40;;;10.60;99.90;;;;;;10462067;28;20092;-61
2021/05/23 01:05:35;;;;;;;30.92;22.02;;;10.50;99.90;;;;;;10461652;28;20048;-60
2021/05/23 01:10:56;;;;;;;44.15;25.63;;;10.60;99.90;;;;;;10462425;28;20121;-60
2021/05/23 01:15:58;;;;;;;33.27;23.27;;;10.60;99.90;;;;;;10461543;28;20076;-60
2021/05/23 01:21:01;;;;;;;33.13;21.90;;;10.60;99.90;;;;;;10461351;28;20116;-60
2021/05/23 01:26:06;;;;;;;31.08;22.20;;;10.60;99.90;;;;;;10461126;28;20041;-61
2021/05/23 01:31:14;;;;;;;35.38;24.25;;;10.60;99.90;;;;;;10461043;28;20405;-61
2021/05/23 01:36:16;;;;;;;26.58;19.60;;;10.60;99.90;;;;;;10460857;28;20479;-61
2021/05/23 01:41:19;;;;;;;29.02;21.77;;;10.60;99.90;;;;;;10460885;28;20055;-61
2021/05/23 01:46:21;;;;;;;25.23;18.88;;;10.50;99.90;;;;;;10459399;28;20045;-61
2021/05/23 01:51:23;;;;;;;39.85;24.02;;;10.50;99.90;;;;;;10460292;28;20503;-61
2021/05/23 01:56:25;;;;;;;44.97;25.70;;;10.50;99.90;;;;;;10460239;28;20048;-60
2021/05/23 02:01:27;;;;;;;34.05;22.50;;;10.60;99.90;;;;;;10459741;28;20057;-61
2021/05/23 02:06:30;;;;;;;25.20;20.10;;;10.50;99.90;;;;;;10459652;28;20052;-60
2021/05/23 02:11:32;;;;;;;38.15;22.15;;;10.50;99.90;;;;;;10459649;28;20045;-60
2021/05/23 02:16:34;;;;;;;37.28;22.83;;;10.50;99.90;;;;;;10458113;28;20045;-60
2021/05/23 02:21:36;;;;;;;32.97;21.95;;;10.50;99.90;;;;;;10459572;28;20044;-60
2021/05/23 02:26:38;;;;;;;31.40;22.83;;;10.50;99.90;;;;;;10458808;28;20529;-59
2021/05/23 02:31:40;;;;;;;28.10;22.13;;;10.40;99.90;;;;;;10458563;28;20507;-60
2021/05/23 02:36:42;;;;;;;32.08;22.00;;;10.50;99.90;;;;;;10458354;28;20536;-60
2021/05/23 02:41:43;;;;;;;33.67;23.90;;;10.50;99.90;;;;;;10458318;28;20396;-61
2021/05/23 02:46:45;;;;;;;39.95;25.25;;;10.50;99.90;;;;;;10458160;28;20049;-60
2021/05/23 02:51:47;;;;;;;44.53;27.60;;;10.50;99.90;;;;;;10457964;28;20523;-60
2021/05/23 02:56:49;;;;;;;37.80;26.60;;;10.60;99.90;;;;;;10458287;28;20059;-60
2021/05/23 03:01:51;;;;;;;56.22;31.02;;;10.50;99.90;;;;;;10458026;28;20045;-61
2021/05/23 03:06:53;;;;;;;59.13;33.63;;;10.60;99.90;;;;;;10457331;28;20044;-61
2021/05/23 03:11:55;;;;;;;55.40;34.97;;;10.60;99.90;;;;;;10456919;28;20045;-60
2021/05/23 03:16:58;;;;;;;55.42;35.70;;;10.50;99.90;;;;;;10457286;28;20049;-61
2021/05/23 03:22:03;;;;;;;54.17;34.90;;;10.50;99.90;;;;;;10456880;28;20366;-61
2021/05/23 03:27:05;;;;;;;56.17;36.05;;;10.50;99.90;;;;;;10457108;28;20045;-60
2021/05/23 03:32:07;;;;;;;63.35;39.95;;;10.50;99.90;;;;;;10456559;28;20472;-61
2021/05/23 03:37:09;;;;;;;58.45;36.33;;;10.40;99.90;;;;;;10457088;28;20060;-60
2021/05/23 03:42:12;;;;;;;80.68;44.72;;;10.30;99.90;;;;;;10456600;28;20045;-60
2021/05/23 03:47:14;;;;;;;69.45;40.25;;;10.40;99.90;;;;;;10456374;28;20386;-61
2021/05/23 03:52:15;;;;;;;82.43;44.78;;;10.40;99.90;;;;;;10456435;28;20123;-60
2021/05/23 03:57:18;;;;;;;64.80;39.60;;;10.40;99.90;;;;;;10456272;28;20045;-60
2021/05/23 04:02:20;;;;;;;62.33;38.83;;;10.30;99.90;;;;;;10456139;28;20509;-60
2021/05/23 04:07:25;;;;;;;56.25;36.80;;;10.30;99.90;;;;;;10456581;28;20080;-60
2021/05/23 04:12:32;;;;;;;64.10;41.35;;;10.30;99.90;;;;;;10456399;28;20045;-60
2021/05/23 04:17:35;;;;;;;74.45;43.25;;;10.40;99.90;;;;;;10455932;28;20048;-60
2021/05/23 04:22:38;;;;;;;67.50;41.05;;;10.40;99.90;;;;;;10439224;28;20067;-60
2021/05/23 04:27:46;;;;;;;65.93;42.10;;;10.50;99.90;;;;;;10463563;28;20052;-60
2021/05/23 04:32:48;;;;;;;71.38;41.90;;;10.50;99.90;;;;;;10463928;28;20123;-60
2021/05/23 04:37:51;;;;;;;57.70;38.05;;;10.50;99.90;;;;;;10463340;28;20061;-62
2021/05/23 04:42:54;;;;;;;79.95;45.75;;;10.40;99.90;;;;;;10463277;28;20045;-60
2021/05/23 04:48:07;;;;;;;67.35;43.38;;;10.60;99.90;;;;;;10463107;28;20045;-60
2021/05/23 04:53:09;;;;;;;49.58;35.15;;;10.50;99.90;;;;;;10462664;28;20049;-60
2021/05/23 04:58:11;;;;;;;83.70;48.42;;;10.60;99.90;;;;;;10462211;28;20493;-60
2021/05/23 05:03:13;;;;;;;78.93;44.55;;;10.60;99.90;;;;;;10462082;28;20045;-60
2021/05/23 05:08:15;;;;;;;66.78;44.78;;;10.50;99.90;;;;;;10461879;28;20380;-60
2021/05/23 05:13:17;;;;;;;36.55;26.92;;;10.60;99.90;;;;;;10460738;28;20055;-60
2021/05/23 05:18:19;;;;;;;24.98;17.30;;;10.50;99.90;;;;;;10461520;28;20049;-60
2021/05/23 05:23:21;;;;;;;27.00;17.73;;;10.30;99.90;;;;;;10461647;28;20045;-60
2021/05/23 05:28:23;;;;;;;26.88;17.58;;;10.20;99.90;;;;;;10461027;28;20052;-60
2021/05/23 05:33:25;;;;;;;20.42;15.32;;;10.20;99.90;;;;;;10461719;28;20048;-60
2021/05/23 05:38:27;;;;;;;33.55;22.15;;;10.30;99.90;;;;;;10460015;28;20055;-60
2021/05/23 05:43:29;;;;;;;32.72;20.95;;;10.30;99.90;;;;;;10460713;28;20045;-60
2021/05/23 05:48:31;;;;;;;33.00;22.90;;;10.40;99.90;;;;;;10460435;28;20532;-60
2021/05/23 05:53:33;;;;;;;42.90;28.00;;;10.50;99.90;;;;;;10460305;28;20052;-60
2021/05/23 05:58:35;;;;;;;39.58;27.15;;;10.60;99.90;;;;;;10460150;28;20048;-60
2021/05/23 06:03:38;;;;;;;41.83;26.00;;;10.60;99.90;;;;;;10459728;28;20044;-59
2021/05/23 06:08:40;;;;;;;38.53;25.02;;;10.50;99.90;;;;;;10460180;28;20424;-60
2021/05/23 06:13:42;;;;;;;26.13;21.90;;;10.50;99.90;;;;;;10457468;28;20047;-60
2021/05/23 06:18:45;;;;;;;22.80;17.92;;;10.60;99.90;;;;;;10457544;28;20041;-60
2021/05/23 06:23:47;;;;;;;34.75;23.27;;;10.60;99.90;;;;;;10458696;28;20424;-59
2021/05/23 06:28:49;;;;;;;31.08;20.05;;;10.70;99.90;;;;;;10458901;28;20460;-60
2021/05/23 06:33:51;;;;;;;24.67;16.65;;;10.80;99.90;;;;;;10458411;28;20060;-61
2021/05/23 06:38:53;;;;;;;30.00;15.98;;;10.80;99.90;;;;;;10457954;28;20048;-60
2021/05/23 06:43:55;;;;;;;25.95;14.32;;;10.80;99.90;;;;;;10458275;28;20048;-61
2021/05/23 06:48:57;;;;;;;27.42;13.90;;;10.80;99.90;;;;;;10457460;28;20124;-61
2021/05/23 06:53:59;;;;;;;21.75;13.07;;;10.90;99.90;;;;;;10457790;28;20056;-60
2021/05/23 06:59:03;;;;;;;19.30;13.07;;;10.90;99.90;;;;;;10458165;28;20055;-61
2021/05/23 07:04:05;;;;;;;23.02;13.52;;;10.80;99.90;;;;;;10457236;28;20358;-60
2021/05/23 07:09:07;;;;;;;24.17;12.75;;;10.90;99.90;;;;;;10457762;28;20049;-61
2021/05/23 07:14:09;;;;;;;25.23;12.80;;;10.90;99.90;;;;;;10456045;28;20048;-60
2021/05/23 07:19:11;;;;;;;19.73;10.07;;;10.80;99.90;;;;;;10456612;28;20123;-61
2021/05/23 07:24:13;;;;;;;20.45;9.82;;;10.80;99.90;;;;;;10456874;28;20049;-61
2021/05/23 07:29:15;;;;;;;18.77;9.18;;;10.60;99.90;;;;;;10457015;28;20037;-60
2021/05/23 07:34:17;;;;;;;19.85;11.38;;;10.80;99.90;;;;;;10456792;28;20052;-60
2021/05/23 07:39:19;;;;;;;20.45;10.38;;;10.70;99.90;;;;;;10456465;28;20476;-61
2021/05/23 07:44:21;;;;;;;16.55;9.57;;;10.70;99.90;;;;;;10456459;28;20415;-60
2021/05/23 07:49:23;;;;;;;17.38;10.57;;;10.60;99.90;;;;;;10456456;28;20043;-60
2021/05/23 07:54:25;;;;;;;14.00;9.65;;;10.80;99.90;;;;;;10455225;28;20052;-61
2021/05/23 07:59:28;;;;;;;11.88;8.00;;;10.90;99.90;;;;;;10460333;28;20392;-60
2021/05/23 08:04:30;;;;;;;15.10;8.23;;;11.10;99.90;;;;;;10464507;28;20047;-61
2021/05/23 08:09:32;;;;;;;15.98;9.82;;;11.10;99.90;;;;;;10464333;28;20393;-60
2021/05/23 08:14:34;;;;;;;24.67;8.68;;;11.20;99.90;;;;;;10464137;28;20052;-61
2021/05/23 08:19:36;;;;;;;21.58;11.38;;;11.20;99.90;;;;;;10464405;28;20037;-61
2021/05/23 08:24:38;;;;;;;18.58;10.18;;;11.20;99.90;;;;;;10462577;28;20053;-60
2021/05/23 08:29:40;;;;;;;14.00;8.52;;;11.20;99.90;;;;;;10463635;28;20465;-60
2021/05/23 08:34:42;;;;;;;14.07;7.93;;;11.10;99.90;;;;;;10463287;28;20514;-60
2021/05/23 08:39:44;;;;;;;17.65;9.43;;;11.20;99.90;;;;;;10463038;28;20469;-60
2021/05/23 08:44:46;;;;;;;11.77;7.18;;;11.30;99.90;;;;;;10462984;28;20094;-61
2021/05/23 08:49:51;;;;;;;18.08;8.80;;;11.20;99.90;;;;;;10463022;28;20391;-61
2021/05/23 08:54:53;;;;;;;13.63;7.10;;;11.40;99.90;;;;;;10462685;28;20052;-60
2021/05/23 08:59:55;;;;;;;13.57;6.22;;;11.40;99.90;;;;;;10461893;28;20043;-60
2021/05/23 09:04:57;;;;;;;7.95;5.47;;;11.50;99.90;;;;;;10462043;28;20056;-60
2021/05/23 09:09:59;;;;;;;12.20;4.88;;;11.50;99.90;;;;;;10461371;28;20044;-61
2021/05/23 09:15:05;;;;;;;11.80;4.60;;;11.60;99.90;;;;;;10461709;28;20051;-60
2021/05/23 09:20:07;;;;;;;6.75;3.70;;;11.70;99.90;;;;;;10444250;28;20469;-61
2021/05/23 09:25:10;;;;;;;9.98;3.58;;;11.70;99.90;;;;;;10461371;28;20114;-60
2021/05/23 09:30:19;;;;;;;6.20;3.25;;;11.80;99.90;;;;;;10461289;28;20041;-61
2021/05/23 09:35:22;;;;;;;8.82;2.92;;;12.40;99.90;;;;;;10460675;28;20128;-61
2021/05/23 09:40:31;;;;;;;10.70;2.97;;;12.40;99.90;;;;;;10460462;28;20416;-60
2021/05/23 09:45:45;;;;;;;7.70;2.97;;;12.40;99.90;;;;;;10460236;28;20037;-61
2021/05/23 09:50:50;;;;;;;9.45;3.17;;;12.60;99.90;;;;;;10460604;28;20037;-61
2021/05/23 09:56:06;;;;;;;7.47;3.47;;;12.70;99.90;;;;;;10460021;28;20473;-61
2021/05/23 10:01:11;;;;;;;9.10;2.85;;;13.00;99.90;;;;;;10460065;28;20090;-60
2021/05/23 10:06:24;;;;;;;5.05;2.50;;;12.80;99.90;;;;;;10458528;28;20041;-61
2021/05/23 10:11:27;;;;;;;6.82;2.78;;;13.00;99.90;;;;;;10459636;28;20051;-61
2021/05/23 10:16:30;;;;;;;7.50;2.22;;;13.20;99.90;;;;;;10457919;28;20385;-61
2021/05/23 10:21:32;;;;;;;10.00;2.45;;;13.50;99.90;;;;;;10458631;28;20048;-60
2021/05/23 10:26:34;;;;;;;2.90;1.85;;;13.30;99.90;;;;;;10458607;28;20099;-60
2021/05/23 10:31:37;;;;;;;5.00;1.75;;;12.90;99.90;;;;;;10459038;28;20041;-60
2021/05/23 10:36:42;;;;;;;3.08;1.98;;;13.20;99.90;;;;;;10458505;28;20047;-61
2021/05/23 10:41:45;;;;;;;5.00;2.13;;;13.40;99.90;;;;;;10458683;28;20052;-60
2021/05/23 10:47:11;;;;;;;5.95;1.75;;;13.50;99.90;;;;;;10458247;28;20094;-60
2021/05/23 10:52:16;;;;;;;4.95;1.77;;;13.40;99.90;;;;;;10456862;28;20047;-60
2021/05/23 10:57:18;;;;;;;7.13;1.80;;;13.20;99.90;;;;;;10457974;28;20040;-60
2021/05/23 11:02:20;;;;;;;4.55;1.70;;;13.30;99.90;;;;;;10458425;28;20048;-60
2021/05/23 11:07:22;;;;;;;9.23;2.05;;;13.50;99.90;;;;;;10457718;28;20055;-60
2021/05/23 11:12:24;;;;;;;3.15;1.63;;;13.60;99.90;;;;;;10457219;28;20045;-60
2021/05/23 11:17:26;;;;;;;4.72;1.48;;;14.50;99.90;;;;;;10457333;28;20055;-61
2021/05/23 11:22:31;;;;;;;3.05;1.27;;;15.80;99.90;;;;;;10456414;28;20076;-60
2021/05/23 11:27:33;;;;;;;2.80;1.50;;;16.40;99.90;;;;;;10456736;28;20487;-61
2021/05/23 11:32:35;;;;;;;4.55;1.27;;;16.70;98.50;;;;;;10455126;28;20099;-61
2021/05/23 11:37:40;;;;;;;5.20;1.27;;;16.80;99.30;;;;;;10456548;28;20040;-60
2021/05/23 11:42:42;;;;;;;2.83;1.00;;;17.40;97.50;;;;;;10456600;28;20526;-60
2021/05/23 11:47:48;;;;;;;6.22;1.88;;;17.60;97.60;;;;;;10456245;28;20459;-60
2021/05/23 11:52:55;;;;;;;6.70;2.80;;;16.10;95.70;;;;;;10456673;28;20045;-60
2021/05/23 11:58:23;;;;;;;6.70;2.15;;;15.60;98.70;;;;;;10455679;28;20049;-60
2021/05/23 12:03:26;;;;;;;4.70;1.88;;;16.90;97.40;;;;;;10455902;28;20124;-60
2021/05/23 12:08:28;;;;;;;6.72;1.52;;;17.00;97.10;;;;;;10456073;28;20075;-60
2021/05/23 12:13:44;;;;;;;3.80;1.27;;;16.90;98.00;;;;;;10456399;28;20051;-60
2021/05/23 12:18:48;;;;;;;4.45;1.15;;;17.10;94.70;;;;;;10455969;28;20470;-61
2021/05/23 12:23:56;;;;;;;6.20;1.70;;;17.30;90.50;;;;;;10455869;28;20048;-60
2021/05/23 12:28:58;;;;;;;5.40;1.80;;;16.40;84.80;;;;;;10455754;28;20530;-60
2021/05/23 12:34:00;;;;;;;4.63;1.25;;;17.00;83.70;;;;;;10455453;28;20400;-60
2021/05/23 12:39:07;;;;;;;4.68;1.67;;;17.50;92.60;;;;;;10455548;28;20056;-60
2021/05/23 12:44:25;;;;;;;3.92;1.90;;;17.30;88.50;;;;;;10457040;28;20045;-60
2021/05/23 12:49:28;;;;;;;3.65;1.20;;;17.10;91.60;;;;;;10463328;28;20481;-60
2021/05/23 12:54:32;;;;;;;2.08;1.15;;;16.90;91.20;;;;;;10462424;28;20469;-60
2021/05/23 12:59:40;;;;;;;5.30;1.70;;;17.20;92.50;;;;;;10462920;28;20048;-60
2021/05/23 13:04:42;;;;;;;5.95;1.40;;;17.40;88.00;;;;;;10462018;28;20514;-60
2021/05/23 13:09:46;;;;;;;4.32;1.08;;;17.60;90.60;;;;;;10460941;28;20041;-60
2021/05/23 13:15:08;;;;;;;5.78;1.85;;;17.70;91.70;;;;;;10462020;28;20052;-60
2021/05/23 13:20:16;;;;;;;5.15;1.65;;;17.60;90.00;;;;;;10462404;28;20136;-57
2021/05/23 13:25:20;;;;;;;5.25;1.55;;;17.90;83.90;;;;;;10461542;28;20045;-57
2021/05/23 13:30:25;;;;;;;7.15;1.63;;;17.60;89.40;;;;;;10461694;28;20131;-57
2021/05/23 13:35:28;;;;;;;6.75;1.50;;;17.20;85.40;;;;;;10460976;28;20049;-57
2021/05/23 13:40:29;;;;;;;3.42;1.42;;;17.00;90.00;;;;;;10461330;28;20379;-57
2021/05/23 13:45:32;;;;;;;6.90;1.80;;;17.00;91.70;;;;;;10460824;28;20049;-58
2021/05/23 13:50:34;;;;;;;3.92;1.20;;;16.90;91.60;;;;;;10461151;28;20051;-57
2021/05/23 13:55:37;;;;;;;3.28;1.20;;;17.40;90.90;;;;;;10459589;28;20569;-57
2021/05/23 14:00:39;;;;;;;2.63;1.38;;;17.10;85.60;;;;;;10460028;28;20541;-57
2021/05/23 14:05:53;;;;;;;7.57;1.50;;;17.00;90.80;;;;;;10460326;28;20052;-57
2021/05/23 14:10:57;;;;;;;2.83;1.38;;;16.70;91.00;;;;;;10458427;28;20123;-60
2021/05/23 14:16:01;;;;;;;3.92;1.55;;;16.60;94.10;;;;;;10458235;28;20481;-60
2021/05/23 14:21:06;;;;;;;3.40;0.90;;;16.80;92.30;;;;;;10458451;28;20362;-58
2021/05/23 14:26:08;;;;;;;3.38;1.40;;;17.20;87.10;;;;;;10458296;28;20036;-58
2021/05/23 14:31:13;;;;;;;4.75;1.15;;;17.10;92.30;;;;;;10459330;28;20040;-58
2021/05/23 14:36:15;;;;;;;3.67;1.63;;;17.00;92.00;;;;;;10458776;28;20433;-59
2021/05/23 14:41:18;;;;;;;5.57;1.20;;;16.70;89.30;;;;;;10459154;28;20047;-58
2021/05/23 14:46:20;;;;;;;2.95;1.20;;;17.10;93.30;;;;;;10458042;28;20473;-58
2021/05/23 14:51:22;;;;;;;5.80;1.73;;;17.20;85.10;;;;;;10458563;28;20047;-58
2021/05/23 14:56:25;;;;;;;5.25;1.58;;;17.30;90.70;;;;;;10457853;28;20599;-59
2021/05/23 15:01:27;;;;;;;4.00;1.00;;;17.50;93.50;;;;;;10457943;28;20037;-58
2021/05/23 15:06:28;;;;;;;4.45;1.70;;;17.10;90.30;;;;;;10457557;28;20041;-58
2021/05/23 15:11:31;;;;;;;4.38;1.00;;;17.10;88.70;;;;;;10457002;28;20390;-58
2021/05/23 15:16:33;;;;;;;2.78;1.27;;;17.40;90.80;;;;;;10457425;28;20045;-58
2021/05/23 15:21:35;;;;;;;3.75;1.27;;;17.20;86.10;;;;;;10457452;28;20041;-58
2021/05/23 15:26:45;;;;;;;3.22;1.05;;;17.00;82.70;;;;;;10456679;28;20048;-57
2021/05/23 15:31:46;;;;;;;4.38;1.48;;;17.10;86.90;;;;;;10457101;28;20072;-57
2021/05/23 15:36:49;;;;;;;3.35;1.15;;;17.20;87.20;;;;;;10455409;28;20045;-58
2021/05/23 15:41:52;;;;;;;2.05;1.15;;;17.10;90.80;;;;;;10456634;28;20056;-58
2021/05/23 15:46:54;;;;;;;1.98;0.90;;;17.00;90.00;;;;;;10456509;28;20045;-58
2021/05/23 15:51:56;;;;;;;4.93;1.20;;;16.80;89.40;;;;;;10456532;28;20049;-58
2021/05/23 15:56:58;;;;;;;4.15;1.77;;;16.60;86.20;;;;;;10456349;28;20048;-57
2021/05/23 16:02:00;;;;;;;4.47;1.23;;;16.70;90.30;;;;;;10456314;28;20052;-57
2021/05/23 16:07:02;;;;;;;4.07;1.00;;;16.80;90.70;;;;;;10456123;28;20063;-58
2021/05/23 16:12:06;;;;;;;6.47;1.20;;;16.80;92.70;;;;;;10456147;28;20041;-57
2021/05/23 16:17:08;;;;;;;3.33;1.23;;;16.70;88.50;;;;;;10455861;28;20475;-58
2021/05/23 16:22:10;;;;;;;2.15;1.05;;;16.70;90.00;;;;;;10462900;28;20052;-57
2021/05/23 16:27:12;;;;;;;2.70;1.30;;;16.70;90.30;;;;;;10463849;28;20047;-57
2021/05/23 16:32:14;;;;;;;3.33;1.08;;;16.70;94.60;;;;;;10462370;28;20041;-58
2021/05/23 16:37:16;;;;;;;8.35;1.45;;;16.70;94.70;;;;;;10463269;28;20048;-57
2021/05/23 16:42:19;;;;;;;4.40;1.23;;;16.50;91.30;;;;;;10463811;28;20380;-57
2021/05/23 16:47:21;;;;;;;2.92;0.90;;;16.30;92.20;;;;;;10461791;28;20485;-57
2021/05/23 16:52:23;;;;;;;3.15;0.80;;;16.40;92.10;;;;;;10462977;28;20055;-57
2021/05/23 16:57:25;;;;;;;3.65;1.10;;;16.30;95.10;;;;;;10462562;28;20044;-57
2021/05/23 17:02:29;;;;;;;3.97;1.23;;;16.30;94.50;;;;;;10462497;28;20060;-58
2021/05/23 17:07:32;;;;;;;6.10;1.05;;;16.30;94.30;;;;;;10462906;28;20079;-57
2021/05/23 17:12:34;;;;;;;1.30;0.80;;;16.30;93.50;;;;;;10462079;28;20106;-57
2021/05/23 17:17:37;;;;;;;1.42;1.05;;;16.30;94.60;;;;;;10462002;28;20129;-57
2021/05/23 17:22:39;;;;;;;2.45;0.88;;;16.20;92.60;;;;;;10461693;28;20037;-57
2021/05/23 17:27:44;;;;;;;2.25;0.90;;;16.00;94.30;;;;;;10461351;28;20477;-57
2021/05/23 17:32:48;;;;;;;5.80;2.25;;;15.90;94.50;;;;;;10460376;28;20041;-58
2021/05/23 17:37:51;;;;;;;3.10;0.88;;;15.90;92.20;;;;;;10461415;28;20045;-57
2021/05/23 17:42:53;;;;;;;1.88;0.90;;;15.80;93.60;;;;;;10460722;28;20055;-57
2021/05/23 17:47:55;;;;;;;1.88;0.95;;;15.90;94.40;;;;;;10460735;28;20045;-57
2021/05/23 17:52:57;;;;;;;1.85;0.80;;;15.80;94.10;;;;;;10460166;28;20422;-57
2021/05/23 17:58:02;;;;;;;1.77;1.08;;;15.70;92.00;;;;;;10460374;28;20041;-57
2021/05/23 18:03:04;;;;;;;1.48;0.95;;;15.50;91.30;;;;;;10460552;28;20055;-57
2021/05/23 18:08:06;;;;;;;5.18;1.50;;;15.50;92.60;;;;;;10460292;28;20041;-58
2021/05/23 18:13:08;;;;;;;3.17;1.00;;;15.30;94.10;;;;;;10459756;28;20041;-58
2021/05/23 18:18:10;;;;;;;3.42;1.23;;;15.40;96.30;;;;;;10459852;28;20047;-57
2021/05/23 18:23:12;;;;;;;5.22;1.92;;;15.30;96.10;;;;;;10459370;28;20048;-57
2021/05/23 18:28:14;;;;;;;3.53;1.15;;;15.30;97.20;;;;;;10459480;28;20396;-57
2021/05/23 18:33:16;;;;;;;2.00;1.20;;;15.20;97.00;;;;;;10458768;28;20473;-57
2021/05/23 18:38:21;;;;;;;2.50;1.10;;;15.10;97.00;;;;;;10458145;28;20049;-57
2021/05/23 18:43:24;;;;;;;3.88;0.90;;;15.10;97.50;;;;;;10458401;28;20064;-57
2021/05/23 18:48:26;;;;;;;3.50;1.10;;;15.00;97.40;;;;;;10458297;28;20041;-57
2021/05/23 18:53:28;;;;;;;2.00;1.00;;;15.00;98.20;;;;;;10458412;28;20037;-57
2021/05/23 18:58:33;;;;;;;3.63;1.40;;;14.80;98.70;;;;;;10457978;28;20051;-57
2021/05/23 19:03:35;;;;;;;1.40;1.00;;;14.80;98.60;;;;;;10457675;28;20482;-57
2021/05/23 19:08:37;;;;;;;3.15;1.30;;;14.70;98.80;;;;;;10457783;28;20077;-57
2021/05/23 19:13:39;;;;;;;1.70;1.15;;;14.60;99.20;;;;;;10456024;28;20128;-57
2021/05/23 19:18:41;;;;;;;2.47;0.82;;;14.60;98.70;;;;;;10456154;28;20366;-57
2021/05/23 19:23:44;;;;;;;1.88;1.20;;;14.50;99.50;;;;;;10457636;28;20043;-57
2021/05/23 19:28:46;;;;;;;1.40;1.10;;;14.50;99.70;;;;;;10457110;28;20495;-57
2021/05/23 19:33:48;;;;;;;2.55;1.50;;;14.40;99.90;;;;;;10456329;28;20051;-57
2021/05/23 19:38:51;;;;;;;3.50;1.40;;;14.30;99.90;;;;;;10457333;28;20040;-57
2021/05/23 19:43:54;;;;;;;4.18;1.60;;;14.20;99.90;;;;;;10457198;28;20053;-58
2021/05/23 19:48:56;;;;;;;2.03;1.55;;;14.00;99.90;;;;;;10456590;28;20548;-58
2021/05/23 19:53:58;;;;;;;2.55;1.50;;;14.00;99.90;;;;;;10457906;28;20041;-57
2021/05/23 19:59:00;;;;;;;3.20;1.30;;;13.90;99.90;;;;;;10465165;28;20044;-57
2021/05/23 20:04:02;;;;;;;2.20;1.20;;;13.90;99.90;;;;;;10463662;28;20040;-57
2021/05/23 20:09:05;;;;;;;3.92;1.40;;;14.00;99.90;;;;;;10464537;28;20472;-56
2021/05/23 20:14:06;;;;;;;2.58;1.77;;;13.90;99.90;;;;;;10464750;28;20384;-57
2021/05/23 20:19:09;;;;;;;2.00;1.27;;;13.80;99.90;;;;;;10464727;28;20052;-57
2021/05/23 20:24:11;;;;;;;3.95;1.80;;;13.70;99.90;;;;;;10464119;28;20036;-57
2021/05/23 20:29:13;;;;;;;7.45;1.50;;;13.60;99.90;;;;;;10463119;28;20044;-57
2021/05/23 20:34:15;;;;;;;4.00;1.67;;;13.60;99.90;;;;;;10462292;28;20401;-57
2021/05/23 20:39:17;;;;;;;5.55;2.20;;;13.50;99.90;;;;;;10463141;28;20049;-57
2021/05/23 20:44:19;;;;;;;5.57;1.70;;;13.50;99.90;;;;;;10463598;28;20049;-57
2021/05/23 20:49:22;;;;;;;2.72;2.25;;;13.30;99.90;;;;;;10463112;28;20048;-57
2021/05/23 20:54:23;;;;;;;4.03;2.33;;;13.40;99.90;;;;;;10463111;28;20045;-57
2021/05/23 20:59:25;;;;;;;6.70;2.20;;;13.40;99.90;;;;;;10462944;28;20047;-56
2021/05/23 21:04:28;;;;;;;4.07;2.30;;;13.20;99.90;;;;;;10461778;28;20116;-57
2021/05/23 21:09:30;;;;;;;2.85;2.17;;;13.20;99.90;;;;;;10461673;28;20389;-56
2021/05/23 21:14:32;;;;;;;3.17;1.58;;;13.30;99.90;;;;;;10462113;28;20045;-57
2021/05/23 21:19:35;;;;;;;2.97;1.55;;;13.30;99.90;;;;;;10462169;28;20041;-57
2021/05/23 21:24:37;;;;;;;4.72;1.17;;;13.20;99.90;;;;;;10461455;28;20037;-56
2021/05/23 21:29:39;;;;;;;3.75;1.33;;;13.20;99.90;;;;;;10461384;28;20047;-56
2021/05/23 21:34:42;;;;;;;2.22;1.27;;;13.10;99.90;;;;;;10461274;28;20047;-58
2021/05/23 21:39:44;;;;;;;2.17;1.80;;;13.10;99.90;;;;;;10460307;28;20049;-56
2021/05/23 21:44:46;;;;;;;2.15;1.35;;;13.20;99.90;;;;;;10461368;28;20045;-56
2021/05/23 21:49:48;;;;;;;3.53;1.45;;;13.10;99.90;;;;;;10460880;28;20087;-56
2021/05/23 21:54:50;;;;;;;4.03;1.38;;;13.00;99.90;;;;;;10460420;28;20041;-56
2021/05/23 21:59:52;;;;;;;2.15;1.50;;;13.00;99.90;;;;;;10460529;28;20053;-55
2021/05/23 22:04:57;;;;;;;3.15;1.30;;;12.90;99.90;;;;;;10460191;28;20094;-56
2021/05/23 22:09:59;;;;;;;5.90;1.92;;;12.90;99.90;;;;;;10460247;28;20044;-56
2021/05/23 22:15:01;;;;;;;6.03;1.92;;;12.80;99.90;;;;;;10459719;28;20040;-56
2021/05/23 22:20:07;;;;;;;4.10;1.40;;;12.90;99.90;;;;;;10459710;28;20047;-57
2021/05/23 22:25:13;;;;;;;3.80;1.48;;;12.90;99.90;;;;;;10458091;28;20040;-58
2021/05/23 22:30:17;;;;;;;3.00;1.42;;;12.90;99.90;;;;;;10459348;28;20045;-58
2021/05/23 22:35:21;;;;;;;1.83;1.40;;;12.80;99.90;;;;;;10458955;28;20068;-55
2021/05/23 22:40:26;;;;;;;2.13;1.17;;;12.90;99.90;;;;;;10458661;28;20072;-56
2021/05/23 22:45:28;;;;;;;4.38;1.30;;;12.80;99.90;;;;;;10458436;28;20040;-57
2021/05/23 22:50:37;;;;;;;2.03;1.00;;;12.80;99.90;;;;;;10459583;28;20060;-57
2021/05/23 22:55:47;;;;;;;6.07;2.17;;;12.80;99.90;;;;;;10458382;28;20055;-57
2021/05/23 23:00:56;;;;;;;2.85;1.05;;;12.70;99.90;;;;;;10457146;28;20055;-56
2021/05/23 23:05:59;;;;;;;1.67;1.00;;;12.60;99.90;;;;;;10457829;28;20045;-56
2021/05/23 23:11:01;;;;;;;2.08;1.15;;;12.50;99.90;;;;;;10457780;28;20045;-56
2021/05/23 23:16:04;;;;;;;3.65;1.52;;;12.50;99.90;;;;;;10457138;28;20477;-58
2021/05/23 23:21:06;;;;;;;3.50;1.60;;;12.50;99.90;;;;;;10457493;28;20037;-55
2021/05/23 23:26:08;;;;;;;1.38;0.95;;;12.50;99.90;;;;;;10456928;28;20473;-57
2021/05/23 23:31:11;;;;;;;6.00;1.45;;;12.50;99.90;;;;;;10456769;28;20044;-57
2021/05/23 23:36:14;;;;;;;1.95;1.30;;;12.60;99.90;;;;;;10457774;28;20128;-56
2021/05/23 23:41:16;;;;;;;2.42;1.35;;;12.50;99.90;;;;;;10456606;28;20049;-58
2021/05/23 23:46:18;;;;;;;2.53;1.08;;;12.50;99.90;;;;;;10456449;28;20048;-56
2021/05/23 23:51:20;;;;;;;2.78;1.10;;;12.40;99.90;;;;;;10457112;28;20049;-57
2021/05/23 23:56:22;;;;;;;2.97;1.23;;;12.40;99.90;;;;;;10456049;28;20508;-53
